Time;durP1;ratioP1;P1;durP2;ratioP2;P2;SDS_P1;SDS_P2;PMS_P1;PMS_P2;Temp;Humidity;BMP_temperature;BMP_pressure;BME280_temperature;BME280_humidity;BME280_pressure;Samples;Min_cycle;Max_cycle;Signal;HPM_P1;HPM_P2
2022/10/18 00:00:49;;;;;;;;;;;;;;;;;;2072344;28;20348;-88
2022/10/18 00:01:49;;;;;;;;;;;;;;;;;;2072570;28;20016;-88
2022/10/18 00:02:49;;;;;;;;;;;;;;;;;;2072466;28;19921;-87
2022/10/18 00:03:49;;;;;;;;;;;;;;;;;;2064355;28;19957;-88
2022/10/18 00:04:50;;;;;;;;;;;;;;;;;;2056271;28;20068;-88
2022/10/18 00:05:50;;;;;;;;;;;;;;;;;;2063930;28;19921;-88
2022/10/18 00:06:50;;;;;;;;;;;;;;;;;;2072347;28;20154;-86
2022/10/18 00:07:51;;;;;;;;;;;;;;;;;;2073218;28;19944;-87
2022/10/18 00:08:51;;;;;;;;;;;;;;;;;;2072942;28;20011;-87
2022/10/18 00:09:51;;;;;;;;;;;;;;;;;;2072190;28;20018;-86
2022/10/18 00:10:52;;;;;;;;;;;;;;;;;;2072177;28;19917;-86
2022/10/18 00:11:53;;;;;;;;;;;;;;;;;;2072043;28;19925;-86
2022/10/18 00:12:53;;;;;;;;;;;;;;;;;;2064306;28;19914;-88
2022/10/18 00:13:54;;;;;;;;;;;;;;;;;;2064148;28;20000;-87
2022/10/18 00:14:55;;;;;;;;;;;;;;;;;;2072392;28;19974;-86
2022/10/18 00:15:56;;;;;;;;;;;;;;;;;;2072870;28;19972;-87
2022/10/18 00:16:57;;;;;;;;;;;;;;;;;;2064006;28;20002;-87
2022/10/18 00:17:57;;;;;;;;;;;;;;;;;;1877152;28;5087038;-88
2022/10/18 00:18:57;;;;;;;;;;;;;;;;;;2072153;28;19949;-89
2022/10/18 00:19:58;;;;;;;;;;;;;;;;;;2072221;28;19914;-87
2022/10/18 00:21:01;;;;;;;;;;;;;;;;;;2064315;28;20367;-87
2022/10/18 00:22:02;;;;;;;;;;;;;;;;;;2064013;28;19922;-88
2022/10/18 00:23:02;;;;;;;;;;;;;;;;;;2063900;28;20309;-88
2022/10/18 00:24:02;;;;;;;;;;;;;;;;;;2072413;28;19921;-88
2022/10/18 00:25:04;;;;;;;;;;;;;;;;;;2072073;28;19914;-88
2022/10/18 00:26:05;;;;;;;;;;;;;;;;;;2072031;28;20319;-88
2022/10/18 00:27:06;;;;;;;;;;;;;;;;;;2072621;28;19920;-88
2022/10/18 00:28:06;;;;;;;;;;;;;;;;;;2072643;28;19914;-88
2022/10/18 00:29:06;;;;;;;;;;;;;;;;;;2072892;28;20406;-88
2022/10/18 00:30:07;;;;;;;;;;;;;;;;;;2072024;28;19993;-87
2022/10/18 00:31:11;;;;;;;;;;;;;;;;;;2064002;28;19918;-87
2022/10/18 00:32:11;;;;;;;;;;;;;;;;;;2056311;28;19918;-88
2022/10/18 00:33:11;;;;;;;;;;;;;;;;;;2055776;28;20324;-87
2022/10/18 00:34:13;;;;;;;;;;;;;;;;;;2064061;28;19914;-88
2022/10/18 00:35:13;;;;;;;;;;;;;;;;;;2064076;28;19914;-87
2022/10/18 00:36:14;;;;;;;;;;;;;;;;;;2063867;28;19913;-87
2022/10/18 00:37:15;;;;;;;;;;;;;;;;;;2077932;28;19914;-88
2022/10/18 00:38:15;;;;;;;;;;;;;;;;;;2080628;28;19989;-87
2022/10/18 00:39:17;;;;;;;;;;;;;;;;;;2072267;28;19941;-87
2022/10/18 00:40:17;;;;;;;;;;;;;;;;;;2071497;28;19914;-87
2022/10/18 00:41:19;;;;;;;;;;;;;;;;;;2067752;28;19914;-87
2022/10/18 00:42:20;;;;;;;;;;;;;;;;;;2062602;28;20004;-84
2022/10/18 00:43:20;;;;;;;;;;;;;;;;;;2059765;28;20266;-87
2022/10/18 00:44:23;;;;;;;;;;;;;;;;;;2056425;28;20025;-87
2022/10/18 00:45:24;;;;;;;;;;;;;;;;;;2064035;28;19914;-87
2022/10/18 00:46:35;;;;;;;;;;;;;;;;;;2063724;28;19956;-87
2022/10/18 00:47:35;;;;;;;;;;;;;;;;;;2065132;28;20335;-87
2022/10/18 00:48:35;;;;;;;;;;;;;;;;;;2071827;28;19962;-87
2022/10/18 00:49:47;;;;;;;;;;;;;;;;;;2072550;28;20192;-87
2022/10/18 00:50:49;;;;;;;;;;;;;;;;;;2063848;28;20237;-87
2022/10/18 00:51:52;;;;;;;;;;;;;;;;;;2063897;28;19972;-88
2022/10/18 00:52:54;;;;;;;;;;;;;;;;;;2072717;28;19921;-87
2022/10/18 00:53:54;;;;;;;;;;;;;;;;;;2063813;28;19913;-87
2022/10/18 00:54:55;;;;;;;;;;;;;;;;;;2063914;28;19922;-87
2022/10/18 00:55:56;;;;;;;;;;;;;;;;;;2072879;28;19913;-87
2022/10/18 00:56:56;;;;;;;;;;;;;;;;;;2071186;28;19908;-87
2022/10/18 00:57:56;;;;;;;;;;;;;;;;;;2074738;28;19914;-87
2022/10/18 00:58:57;;;;;;;;;;;;;;;;;;2082761;28;19920;-87
2022/10/18 00:59:57;;;;;;;;;;;;;;;;;;2078732;28;19913;-87
2022/10/18 01:00:57;;;;;;;;;;;;;;;;;;2076496;28;19913;-86
2022/10/18 01:01:58;;;;;;;;;;;;;;;;;;2074654;28;19925;-88
2022/10/18 01:02:58;;;;;;;;;;;;;;;;;;1712164;28;10210340;-88
2022/10/18 01:03:58;;;;;;;;;;;;;;;;;;2063749;28;19921;-87
2022/10/18 01:04:59;;;;;;;;;;;;;;;;;;2071816;28;19981;-89
2022/10/18 01:05:59;;;;;;;;;;;;;;;;;;2055656;28;19945;-87
2022/10/18 01:07:05;;;;;;;;;;;;;;;;;;2063877;28;19988;-87
2022/10/18 01:08:20;;;;;;;;;;;;;;;;;;2071844;28;19943;-88
2022/10/18 01:09:35;;;;;;;;;;;;;;;;;;2071828;28;19913;-88
2022/10/18 01:10:50;;;;;;;;;;;;;;;;;;2063387;28;19924;-85
2022/10/18 01:11:59;;;;;;;;;;;;;;;;;;2065604;28;19913;-88
2022/10/18 01:13:00;;;;;;;;;;;;;;;;;;2071745;28;20327;-87
2022/10/18 01:14:09;;;;;;;;;;;;;;;;;;2071696;28;19914;-86
2022/10/18 01:15:17;;;;;;;;;;;;;;;;;;2071853;28;20361;-87
2022/10/18 01:16:38;;;;;;;;;;;;;;;;;;2063497;28;19913;-87
2022/10/18 01:17:41;;;;;;;;;;;;;;;;;;2066042;28;19918;-87
2022/10/18 01:18:56;;;;;;;;;;;;;;;;;;2072119;28;19971;-88
2022/10/18 01:20:03;;;;;;;;;;;;;;;;;;2072282;28;19905;-87
2022/10/18 01:21:08;;;;;;;;;;;;;;;;;;2071680;28;19925;-89
2022/10/18 01:22:18;;;;;;;;;;;;;;;;;;2074450;28;19936;-88
2022/10/18 01:23:28;;;;;;;;;;;;;;;;;;2072077;28;19921;-87
2022/10/18 01:24:43;;;;;;;;;;;;;;;;;;2069777;28;19968;-88
2022/10/18 01:26:02;;;;;;;;;;;;;;;;;;2063499;28;19992;-88
2022/10/18 01:27:20;;;;;;;;;;;;;;;;;;1717881;28;10088189;-88
2022/10/18 01:28:49;;;;;;;;;;;;;;;;;;2071613;28;20352;-89
2022/10/18 01:29:52;;;;;;;;;;;;;;;;;;2043469;29;19914;-88
2022/10/18 01:31:13;;;;;;;;;;;;;;;;;;2047042;29;20017;-88
2022/10/18 01:32:15;;;;;;;;;;;;;;;;;;2063044;28;19913;-88
2022/10/18 01:33:22;;;;;;;;;;;;;;;;;;2055908;28;19922;-88
2022/10/18 01:34:23;;;;;;;;;;;;;;;;;;2064371;28;19918;-87
2022/10/18 01:35:35;;;;;;;;;;;;;;;;;;2072340;28;19995;-88
2022/10/18 01:36:38;;;;;;;;;;;;;;;;;;2072403;28;19919;-88
2022/10/18 01:37:48;;;;;;;;;;;;;;;;;;2000174;28;10395220;-88
2022/10/18 01:38:49;;;;;;;;;;;;;;;;;;2065180;28;19972;-88
2022/10/18 01:39:53;;;;;;;;;;;;;;;;;;2071644;28;20392;-88
2022/10/18 01:40:54;;;;;;;;;;;;;;;;;;2072500;28;19967;-88
2022/10/18 01:41:55;;;;;;;;;;;;;;;;;;2071548;28;19974;-88
2022/10/18 01:42:55;;;;;;;;;;;;;;;;;;2071807;28;20367;-88
2022/10/18 01:43:57;;;;;;;;;;;;;;;;;;2063612;28;19914;-89
2022/10/18 01:44:58;;;;;;;;;;;;;;;;;;2063912;28;20375;-88
2022/10/18 01:45:59;;;;;;;;;;;;;;;;;;2072224;28;19914;-89
2022/10/18 01:47:00;;;;;;;;;;;;;;;;;;2072368;28;19914;-88
2022/10/18 01:48:00;;;;;;;;;;;;;;;;;;1717639;28;10213778;-89
2022/10/18 01:49:01;;;;;;;;;;;;;;;;;;2071647;28;20004;-88
2022/10/18 01:50:04;;;;;;;;;;;;;;;;;;2071460;28;20328;-88
2022/10/18 01:51:04;;;;;;;;;;;;;;;;;;2063177;28;20053;-87
2022/10/18 01:52:05;;;;;;;;;;;;;;;;;;2063369;28;19921;-89
2022/10/18 01:53:05;;;;;;;;;;;;;;;;;;2063487;28;19913;-88
2022/10/18 01:54:05;;;;;;;;;;;;;;;;;;2055538;28;19914;-88
2022/10/18 01:55:06;;;;;;;;;;;;;;;;;;2063199;28;20005;-88
2022/10/18 01:56:17;;;;;;;;;;;;;;;;;;2063339;28;19918;-88
2022/10/18 01:57:39;;;;;;;;;;;;;;;;;;2056609;28;20424;-88
2022/10/18 01:58:52;;;;;;;;;;;;;;;;;;2066587;28;19986;-88
2022/10/18 02:00:00;;;;;;;;;;;;;;;;;;2063420;28;20057;-88
2022/10/18 02:01:15;;;;;;;;;;;;;;;;;;2056049;28;20430;-88
2022/10/18 02:02:27;;;;;;;;;;;;;;;;;;2065346;28;19918;-88
2022/10/18 02:03:28;;;;;;;;;;;;;;;;;;2072049;28;19914;-88
2022/10/18 02:04:28;;;;;;;;;;;;;;;;;;2071487;28;19918;-88
2022/10/18 02:05:39;;;;;;;;;;;;;;;;;;2071498;28;20478;-88
2022/10/18 02:06:42;;;;;;;;;;;;;;;;;;2071998;28;19925;-88
2022/10/18 02:07:51;;;;;;;;;;;;;;;;;;2072080;28;19941;-88
2022/10/18 02:08:54;;;;;;;;;;;;;;;;;;2072256;28;19917;-88
2022/10/18 02:10:07;;;;;;;;;;;;;;;;;;2063266;28;19925;-88
2022/10/18 02:11:09;;;;;;;;;;;;;;;;;;2064955;28;19925;-89
2022/10/18 02:12:12;;;;;;;;;;;;;;;;;;2071426;28;20389;-88
2022/10/18 02:13:14;;;;;;;;;;;;;;;;;;2063190;28;20009;-88
2022/10/18 02:14:16;;;;;;;;;;;;;;;;;;2055746;28;20061;-88
2022/10/18 02:15:19;;;;;;;;;;;;;;;;;;2063556;28;19913;-89
2022/10/18 02:16:25;;;;;;;;;;;;;;;;;;2071547;28;19913;-89
2022/10/18 02:17:27;;;;;;;;;;;;;;;;;;2063115;28;19952;-88
2022/10/18 02:18:31;;;;;;;;;;;;;;;;;;2062731;28;19927;-88
2022/10/18 02:19:35;;;;;;;;;;;;;;;;;;2071719;28;19949;-88
2022/10/18 02:20:36;;;;;;;;;;;;;;;;;;2071678;28;20012;-89
2022/10/18 02:21:39;;;;;;;;;;;;;;;;;;2072040;28;19925;-88
2022/10/18 02:22:41;;;;;;;;;;;;;;;;;;2071442;28;19948;-89
2022/10/18 02:23:43;;;;;;;;;;;;;;;;;;2071356;28;19914;-88
2022/10/18 02:24:47;;;;;;;;;;;;;;;;;;2063163;28;20348;-88
2022/10/18 02:25:47;;;;;;;;;;;;;;;;;;2062977;28;19988;-88
2022/10/18 02:26:49;;;;;;;;;;;;;;;;;;2063525;28;20110;-88
2022/10/18 02:27:50;;;;;;;;;;;;;;;;;;2063643;28;20251;-88
2022/10/18 02:28:51;;;;;;;;;;;;;;;;;;2072222;28;19976;-88
2022/10/18 02:29:51;;;;;;;;;;;;;;;;;;2072022;28;20004;-88
2022/10/18 02:30:57;;;;;;;;;;;;;;;;;;2070738;28;20363;-88
2022/10/18 02:32:09;;;;;;;;;;;;;;;;;;2070802;28;19956;-88
2022/10/18 02:33:18;;;;;;;;;;;;;;;;;;2071226;28;20150;-88
2022/10/18 02:34:22;;;;;;;;;;;;;;;;;;2071396;28;20088;-88
2022/10/18 02:36:48;;;;;;;;;;;;;;;;;;2328786;23;20551;-87
2022/10/18 02:37:49;;;;;;;;;;;;;;;;;;2071373;28;19961;-87
2022/10/18 02:38:53;;;;;;;;;;;;;;;;;;2071380;28;19913;-88
2022/10/18 02:39:53;;;;;;;;;;;;;;;;;;2071060;28;19925;-89
2022/10/18 02:40:54;;;;;;;;;;;;;;;;;;2071737;28;19960;-88
2022/10/18 02:41:55;;;;;;;;;;;;;;;;;;2071126;28;19913;-88
2022/10/18 02:42:56;;;;;;;;;;;;;;;;;;2071413;28;20405;-87
2022/10/18 02:43:56;;;;;;;;;;;;;;;;;;2071450;28;19918;-88
2022/10/18 02:44:57;;;;;;;;;;;;;;;;;;2063100;28;19914;-88
2022/10/18 02:45:57;;;;;;;;;;;;;;;;;;2071260;28;19929;-88
2022/10/18 02:46:57;;;;;;;;;;;;;;;;;;2079479;28;19959;-88
2022/10/18 02:47:58;;;;;;;;;;;;;;;;;;2072181;28;20321;-88
2022/10/18 02:48:58;;;;;;;;;;;;;;;;;;2071902;28;20423;-88
2022/10/18 02:49:59;;;;;;;;;;;;;;;;;;2071823;28;20245;-88
2022/10/18 02:50:59;;;;;;;;;;;;;;;;;;2071900;28;20036;-88
2022/10/18 02:51:59;;;;;;;;;;;;;;;;;;2072231;28;20012;-88
2022/10/18 02:52:59;;;;;;;;;;;;;;;;;;2071931;28;20395;-88
2022/10/18 02:54:00;;;;;;;;;;;;;;;;;;2071413;28;20002;-89
2022/10/18 02:55:00;;;;;;;;;;;;;;;;;;2071405;28;20374;-89
2022/10/18 02:56:02;;;;;;;;;;;;;;;;;;2071211;28;19917;-89
2022/10/18 02:57:02;;;;;;;;;;;;;;;;;;2071218;28;20387;-88
2022/10/18 02:58:02;;;;;;;;;;;;;;;;;;2071360;28;19914;-89
2022/10/18 02:59:04;;;;;;;;;;;;;;;;;;2071244;28;19913;-88
2022/10/18 03:00:05;;;;;;;;;;;;;;;;;;2071465;28;20505;-88
2022/10/18 03:01:05;;;;;;;;;;;;;;;;;;2071167;28;19918;-88
2022/10/18 03:02:05;;;;;;;;;;;;;;;;;;2071094;28;20009;-88
2022/10/18 03:03:05;;;;;;;;;;;;;;;;;;2063254;28;19914;-88
2022/10/18 03:04:06;;;;;;;;;;;;;;;;;;2071270;28;19917;-88
2022/10/18 03:05:06;;;;;;;;;;;;;;;;;;2070964;28;19929;-88
2022/10/18 03:06:06;;;;;;;;;;;;;;;;;;2065336;28;20045;-88
2022/10/18 03:07:07;;;;;;;;;;;;;;;;;;2063122;28;19918;-88
2022/10/18 03:08:07;;;;;;;;;;;;;;;;;;2071297;28;19925;-88
2022/10/18 03:09:08;;;;;;;;;;;;;;;;;;2071132;28;20119;-86
2022/10/18 03:10:08;;;;;;;;;;;;;;;;;;2070974;28;20374;-86
2022/10/18 03:11:09;;;;;;;;;;;;;;;;;;2071043;28;19937;-89
2022/10/18 03:12:09;;;;;;;;;;;;;;;;;;2071197;28;19920;-87
2022/10/18 03:13:10;;;;;;;;;;;;;;;;;;2072056;28;20334;-88
2022/10/18 03:14:10;;;;;;;;;;;;;;;;;;2072143;28;20008;-89
2022/10/18 03:15:11;;;;;;;;;;;;;;;;;;2071363;28;19913;-87
2022/10/18 03:16:11;;;;;;;;;;;;;;;;;;2071237;28;19962;-89
2022/10/18 03:17:12;;;;;;;;;;;;;;;;;;2074900;28;19917;-89
2022/10/18 03:18:12;;;;;;;;;;;;;;;;;;2072306;28;20017;-88
2022/10/18 03:19:12;;;;;;;;;;;;;;;;;;2081943;28;19917;-89
2022/10/18 03:20:13;;;;;;;;;;;;;;;;;;2081812;28;19952;-89
2022/10/18 03:21:13;;;;;;;;;;;;;;;;;;2082002;28;19945;-89
2022/10/18 03:22:13;;;;;;;;;;;;;;;;;;2078216;28;19913;-89
2022/10/18 03:23:14;;;;;;;;;;;;;;;;;;2072993;28;20315;-89
2022/10/18 03:24:14;;;;;;;;;;;;;;;;;;2071111;28;19914;-89
2022/10/18 03:25:14;;;;;;;;;;;;;;;;;;2071393;28;19914;-89
2022/10/18 03:26:15;;;;;;;;;;;;;;;;;;2070980;28;19960;-89
2022/10/18 03:27:15;;;;;;;;;;;;;;;;;;2062568;28;19913;-88
2022/10/18 03:28:15;;;;;;;;;;;;;;;;;;1712617;28;10369035;-89
2022/10/18 03:29:15;;;;;;;;;;;;;;;;;;2070958;28;20314;-87
2022/10/18 03:30:16;;;;;;;;;;;;;;;;;;2062746;28;19981;-88
2022/10/18 03:31:16;;;;;;;;;;;;;;;;;;2070907;28;20269;-88
2022/10/18 03:32:16;;;;;;;;;;;;;;;;;;2070734;28;19951;-88
2022/10/18 03:33:17;;;;;;;;;;;;;;;;;;2062894;28;20381;-87
2022/10/18 03:34:17;;;;;;;;;;;;;;;;;;2062774;28;19929;-88
2022/10/18 03:35:17;;;;;;;;;;;;;;;;;;2071197;28;20063;-87
2022/10/18 03:36:17;;;;;;;;;;;;;;;;;;2070841;28;20375;-88
2022/10/18 03:37:18;;;;;;;;;;;;;;;;;;2075622;28;19914;-88
2022/10/18 03:38:18;;;;;;;;;;;;;;;;;;2084103;28;19913;-88
2022/10/18 03:39:18;;;;;;;;;;;;;;;;;;2073458;28;19913;-87
2022/10/18 03:40:19;;;;;;;;;;;;;;;;;;2080133;28;19924;-86
2022/10/18 03:41:19;;;;;;;;;;;;;;;;;;2082053;28;19917;-86
2022/10/18 03:42:20;;;;;;;;;;;;;;;;;;2081349;28;20173;-87
2022/10/18 03:43:20;;;;;;;;;;;;;;;;;;2073694;28;19921;-85
2022/10/18 03:44:20;;;;;;;;;;;;;;;;;;2072912;28;20403;-87
2022/10/18 03:45:20;;;;;;;;;;;;;;;;;;2072950;28;20411;-86
2022/10/18 03:46:21;;;;;;;;;;;;;;;;;;2073316;28;19914;-86
2022/10/18 03:47:21;;;;;;;;;;;;;;;;;;2073141;28;19921;-86
2022/10/18 03:48:21;;;;;;;;;;;;;;;;;;2072939;28;19947;-87
2022/10/18 03:49:21;;;;;;;;;;;;;;;;;;2072972;28;19925;-87
2022/10/18 03:50:22;;;;;;;;;;;;;;;;;;2072455;28;20276;-86
2022/10/18 03:51:22;;;;;;;;;;;;;;;;;;2072513;28;19913;-87
2022/10/18 03:52:22;;;;;;;;;;;;;;;;;;2073114;28;20398;-88
2022/10/18 03:53:23;;;;;;;;;;;;;;;;;;2071743;28;19964;-86
2022/10/18 03:54:23;;;;;;;;;;;;;;;;;;2064323;28;19914;-87
2022/10/18 03:55:23;;;;;;;;;;;;;;;;;;2072352;28;19921;-87
2022/10/18 03:56:23;;;;;;;;;;;;;;;;;;2072360;28;19952;-87
2022/10/18 03:57:24;;;;;;;;;;;;;;;;;;2064225;28;19913;-87
2022/10/18 03:58:24;;;;;;;;;;;;;;;;;;2072564;28;19924;-87
2022/10/18 03:59:24;;;;;;;;;;;;;;;;;;2072554;28;19953;-88
2022/10/18 04:00:25;;;;;;;;;;;;;;;;;;2072594;28;20202;-88
2022/10/18 04:01:25;;;;;;;;;;;;;;;;;;2080607;28;19916;-87
2022/10/18 04:02:25;;;;;;;;;;;;;;;;;;2072310;28;19921;-86
2022/10/18 04:03:26;;;;;;;;;;;;;;;;;;2064237;28;20122;-87
2022/10/18 04:04:26;;;;;;;;;;;;;;;;;;2064125;28;19965;-86
2022/10/18 04:05:29;;;;;;;;;;;;;;;;;;2072353;28;19917;-88
2022/10/18 04:06:29;;;;;;;;;;;;;;;;;;2073117;28;19917;-87
2022/10/18 04:07:30;;;;;;;;;;;;;;;;;;2072969;28;19919;-87
2022/10/18 04:08:30;;;;;;;;;;;;;;;;;;2072883;28;19952;-87
2022/10/18 04:09:30;;;;;;;;;;;;;;;;;;2072930;28;20328;-87
2022/10/18 04:10:30;;;;;;;;;;;;;;;;;;2072372;28;20000;-88
2022/10/18 04:11:31;;;;;;;;;;;;;;;;;;2072383;28;19989;-87
2022/10/18 04:12:31;;;;;;;;;;;;;;;;;;2073256;28;20124;-88
2022/10/18 04:13:31;;;;;;;;;;;;;;;;;;2072981;28;19913;-87
2022/10/18 04:14:32;;;;;;;;;;;;;;;;;;2072974;28;19983;-88
2022/10/18 04:15:32;;;;;;;;;;;;;;;;;;2072808;28;19924;-87
2022/10/18 04:16:34;;;;;;;;;;;;;;;;;;2081065;28;19901;-94
2022/10/18 04:17:34;;;;;;;;;;;;;;;;;;2082045;28;19901;-93
2022/10/18 04:18:35;;;;;;;;;;;;;;;;;;2072426;28;19918;-96
2022/10/18 04:19:35;;;;;;;;;;;;;;;;;;2075678;28;19953;-96
2022/10/18 04:20:35;;;;;;;;;;;;;;;;;;2076422;28;20012;-96
2022/10/18 04:21:36;;;;;;;;;;;;;;;;;;2066882;28;19914;-96
2022/10/18 04:22:36;;;;;;;;;;;;;;;;;;2066717;28;19917;-96
2022/10/18 04:23:37;;;;;;;;;;;;;;;;;;2075322;28;19917;-96
2022/10/18 04:24:37;;;;;;;;;;;;;;;;;;2074873;28;19913;-96
2022/10/18 04:25:37;;;;;;;;;;;;;;;;;;2066741;28;19914;-96
2022/10/18 04:26:41;;;;;;;;;;;;;;;;;;2066640;28;19941;-96
2022/10/18 04:27:43;;;;;;;;;;;;;;;;;;2068539;28;20024;-96
2022/10/18 04:28:45;;;;;;;;;;;;;;;;;;2067020;28;20373;-96
2022/10/18 04:29:45;;;;;;;;;;;;;;;;;;2074787;28;20381;-96
2022/10/18 04:30:50;;;;;;;;;;;;;;;;;;2067122;28;19976;-96
2022/10/18 04:31:50;;;;;;;;;;;;;;;;;;2067244;28;19921;-96
2022/10/18 04:32:50;;;;;;;;;;;;;;;;;;2066946;28;20409;-96
2022/10/18 04:33:52;;;;;;;;;;;;;;;;;;2075904;28;19913;-96
2022/10/18 04:34:52;;;;;;;;;;;;;;;;;;2080284;28;19990;-88
2022/10/18 04:35:52;;;;;;;;;;;;;;;;;;2072207;28;20440;-88
2022/10/18 04:36:53;;;;;;;;;;;;;;;;;;2072028;28;19940;-88
2022/10/18 04:37:53;;;;;;;;;;;;;;;;;;2071992;28;19953;-88
2022/10/18 04:38:54;;;;;;;;;;;;;;;;;;2064303;28;20351;-88
2022/10/18 04:39:54;;;;;;;;;;;;;;;;;;2072495;28;20004;-88
2022/10/18 04:40:54;;;;;;;;;;;;;;;;;;2072910;28;19984;-87
2022/10/18 04:41:55;;;;;;;;;;;;;;;;;;2072163;28;19913;-87
2022/10/18 04:42:56;;;;;;;;;;;;;;;;;;1722204;28;10121182;-89
2022/10/18 04:43:57;;;;;;;;;;;;;;;;;;2080261;28;19917;-87
2022/10/18 04:44:57;;;;;;;;;;;;;;;;;;2072850;28;19913;-87
2022/10/18 04:45:57;;;;;;;;;;;;;;;;;;2072821;28;19917;-88
2022/10/18 04:46:57;;;;;;;;;;;;;;;;;;2072891;28;20332;-89
2022/10/18 04:47:58;;;;;;;;;;;;;;;;;;2071939;28;19914;-88
2022/10/18 04:49:00;;;;;;;;;;;;;;;;;;2064245;28;19914;-86
2022/10/18 04:50:00;;;;;;;;;;;;;;;;;;2072015;28;20011;-88
2022/10/18 04:51:00;;;;;;;;;;;;;;;;;;2071892;28;19928;-87
2022/10/18 04:52:00;;;;;;;;;;;;;;;;;;2063905;28;20466;-87
2022/10/18 04:53:01;;;;;;;;;;;;;;;;;;2071925;28;19996;-86
2022/10/18 04:54:01;;;;;;;;;;;;;;;;;;2070793;28;19917;-86
2022/10/18 04:55:01;;;;;;;;;;;;;;;;;;2063728;28;20371;-86
2022/10/18 04:56:02;;;;;;;;;;;;;;;;;;2071997;28;19964;-86
2022/10/18 04:57:03;;;;;;;;;;;;;;;;;;2071794;28;19925;-88
2022/10/18 04:58:03;;;;;;;;;;;;;;;;;;2063843;28;19914;-87
2022/10/18 04:59:04;;;;;;;;;;;;;;;;;;2072021;28;19983;-86
2022/10/18 05:00:04;;;;;;;;;;;;;;;;;;2071919;28;19913;-88
2022/10/18 05:01:05;;;;;;;;;;;;;;;;;;2071872;28;19914;-86
2022/10/18 05:02:05;;;;;;;;;;;;;;;;;;2072765;28;20427;-86
2022/10/18 05:03:06;;;;;;;;;;;;;;;;;;2072059;28;19913;-87
2022/10/18 05:04:07;;;;;;;;;;;;;;;;;;2063707;28;20328;-87
2022/10/18 05:05:07;;;;;;;;;;;;;;;;;;2063856;28;19921;-87
2022/10/18 05:06:07;;;;;;;;;;;;;;;;;;2063731;28;19914;-87
2022/10/18 05:07:07;;;;;;;;;;;;;;;;;;2071873;28;20005;-87
2022/10/18 05:08:08;;;;;;;;;;;;;;;;;;2071723;28;19974;-86
2022/10/18 05:09:08;;;;;;;;;;;;;;;;;;2063754;28;19914;-87
2022/10/18 05:10:08;;;;;;;;;;;;;;;;;;2063841;28;19989;-85
2022/10/18 05:11:08;;;;;;;;;;;;;;;;;;2071460;28;19925;-87
2022/10/18 05:12:09;;;;;;;;;;;;;;;;;;2079883;28;19917;-87
2022/10/18 05:13:09;;;;;;;;;;;;;;;;;;2071670;28;19917;-87
2022/10/18 05:14:09;;;;;;;;;;;;;;;;;;2063314;28;20381;-86
2022/10/18 05:15:10;;;;;;;;;;;;;;;;;;2062855;28;20032;-87
2022/10/18 05:16:10;;;;;;;;;;;;;;;;;;2063045;28;19917;-85
2022/10/18 05:17:10;;;;;;;;;;;;;;;;;;2070778;28;19914;-87
2022/10/18 05:18:10;;;;;;;;;;;;;;;;;;2079168;28;19975;-87
2022/10/18 05:19:11;;;;;;;;;;;;;;;;;;2071971;28;20310;-88
2022/10/18 05:20:11;;;;;;;;;;;;;;;;;;2071872;28;19914;-87
2022/10/18 05:21:12;;;;;;;;;;;;;;;;;;2071199;28;19917;-87
2022/10/18 05:22:12;;;;;;;;;;;;;;;;;;2071291;28;19960;-87
2022/10/18 05:23:13;;;;;;;;;;;;;;;;;;2071761;28;19922;-87
2022/10/18 05:24:13;;;;;;;;;;;;;;;;;;2071799;28;19967;-87
2022/10/18 05:25:13;;;;;;;;;;;;;;;;;;2071593;28;20012;-88
2022/10/18 05:26:14;;;;;;;;;;;;;;;;;;2071743;28;20034;-88
2022/10/18 05:27:15;;;;;;;;;;;;;;;;;;2071905;28;20008;-87
2022/10/18 05:28:16;;;;;;;;;;;;;;;;;;2072552;28;19946;-88
2022/10/18 05:29:16;;;;;;;;;;;;;;;;;;2072557;28;20330;-87
2022/10/18 05:30:16;;;;;;;;;;;;;;;;;;2071434;28;19917;-88
2022/10/18 05:31:17;;;;;;;;;;;;;;;;;;2072266;28;20364;-88
2022/10/18 05:32:17;;;;;;;;;;;;;;;;;;2071990;28;20003;-88
2022/10/18 05:33:17;;;;;;;;;;;;;;;;;;2072000;28;20360;-88
2022/10/18 05:34:19;;;;;;;;;;;;;;;;;;2071825;28;20039;-88
2022/10/18 05:35:19;;;;;;;;;;;;;;;;;;2063876;28;19996;-87
2022/10/18 05:36:20;;;;;;;;;;;;;;;;;;2063527;28;20436;-87
2022/10/18 05:37:21;;;;;;;;;;;;;;;;;;2071746;28;20001;-88
2022/10/18 05:38:22;;;;;;;;;;;;;;;;;;2072809;28;19928;-87
2022/10/18 05:39:23;;;;;;;;;;;;;;;;;;2072863;28;19913;-87
2022/10/18 05:40:24;;;;;;;;;;;;;;;;;;2072482;28;19921;-88
2022/10/18 05:41:24;;;;;;;;;;;;;;;;;;1715256;28;10313256;-88
2022/10/18 05:42:24;;;;;;;;;;;;;;;;;;2063694;28;19922;-87
2022/10/18 05:43:28;;;;;;;;;;;;;;;;;;2071786;28;19996;-87
2022/10/18 05:44:28;;;;;;;;;;;;;;;;;;2072631;28;19913;-87
2022/10/18 05:45:28;;;;;;;;;;;;;;;;;;2071743;28;19936;-88
2022/10/18 05:46:29;;;;;;;;;;;;;;;;;;2063498;28;19968;-87
2022/10/18 05:47:29;;;;;;;;;;;;;;;;;;2071868;28;19968;-87
2022/10/18 05:48:29;;;;;;;;;;;;;;;;;;2071617;28;20392;-87
2022/10/18 05:49:30;;;;;;;;;;;;;;;;;;2072055;28;19913;-87
2022/10/18 05:50:30;;;;;;;;;;;;;;;;;;2071596;28;19913;-88
2022/10/18 05:51:30;;;;;;;;;;;;;;;;;;2072065;28;19914;-88
2022/10/18 05:52:31;;;;;;;;;;;;;;;;;;2072881;28;20327;-88
2022/10/18 05:53:34;;;;;;;;;;;;;;;;;;2074257;28;20031;-88
2022/10/18 05:54:34;;;;;;;;;;;;;;;;;;2081991;28;19926;-88
2022/10/18 05:55:35;;;;;;;;;;;;;;;;;;2082885;28;19917;-89
2022/10/18 05:56:35;;;;;;;;;;;;;;;;;;2082746;28;19921;-88
2022/10/18 05:57:36;;;;;;;;;;;;;;;;;;1726043;28;10265879;-87
2022/10/18 05:58:36;;;;;;;;;;;;;;;;;;1727882;28;10187099;-88
2022/10/18 05:59:37;;;;;;;;;;;;;;;;;;2073427;28;20428;-88
2022/10/18 06:00:37;;;;;;;;;;;;;;;;;;2071877;28;19982;-88
2022/10/18 06:01:38;;;;;;;;;;;;;;;;;;2063879;28;19957;-88
2022/10/18 06:02:38;;;;;;;;;;;;;;;;;;2063600;28;20684;-88
2022/10/18 06:03:40;;;;;;;;;;;;;;;;;;2071416;28;20019;-88
2022/10/18 06:04:40;;;;;;;;;;;;;;;;;;2072351;28;19913;-88
2022/10/18 06:05:41;;;;;;;;;;;;;;;;;;2072207;28;20459;-88
2022/10/18 06:06:41;;;;;;;;;;;;;;;;;;2063102;28;19968;-88
2022/10/18 06:07:41;;;;;;;;;;;;;;;;;;2071633;28;20337;-89
2022/10/18 06:08:42;;;;;;;;;;;;;;;;;;2063795;28;19984;-87
2022/10/18 06:09:43;;;;;;;;;;;;;;;;;;2063879;28;19949;-87
2022/10/18 06:10:43;;;;;;;;;;;;;;;;;;2063699;28;20380;-87
2022/10/18 06:11:43;;;;;;;;;;;;;;;;;;2071610;28;19913;-87
2022/10/18 06:12:44;;;;;;;;;;;;;;;;;;2071792;28;20193;-88
2022/10/18 06:13:48;;;;;;;;;;;;;;;;;;2082340;28;19932;-88
2022/10/18 06:14:48;;;;;;;;;;;;;;;;;;2082168;28;19992;-87
2022/10/18 06:15:49;;;;;;;;;;;;;;;;;;2082354;28;20005;-88
2022/10/18 06:16:49;;;;;;;;;;;;;;;;;;2082144;28;19993;-88
2022/10/18 06:17:49;;;;;;;;;;;;;;;;;;2074063;28;19925;-88
2022/10/18 06:18:54;;;;;;;;;;;;;;;;;;2073545;28;19913;-88
2022/10/18 06:19:54;;;;;;;;;;;;;;;;;;2079047;28;19957;-87
2022/10/18 06:20:55;;;;;;;;;;;;;;;;;;2063534;28;19940;-88
2022/10/18 06:21:55;;;;;;;;;;;;;;;;;;2063315;28;20036;-88
2022/10/18 06:22:57;;;;;;;;;;;;;;;;;;2071557;28;20308;-88
2022/10/18 06:23:58;;;;;;;;;;;;;;;;;;2071383;28;19917;-88
2022/10/18 06:24:58;;;;;;;;;;;;;;;;;;2071711;28;19914;-88
2022/10/18 06:26:02;;;;;;;;;;;;;;;;;;2071391;28;20013;-88
2022/10/18 06:27:08;;;;;;;;;;;;;;;;;;2071697;28;20401;-87
2022/10/18 06:28:08;;;;;;;;;;;;;;;;;;2071772;28;19913;-88
2022/10/18 06:29:08;;;;;;;;;;;;;;;;;;2063616;28;19918;-88
2022/10/18 06:30:09;;;;;;;;;;;;;;;;;;2071394;28;20015;-88
2022/10/18 06:31:10;;;;;;;;;;;;;;;;;;2071445;28;19917;-88
2022/10/18 06:32:10;;;;;;;;;;;;;;;;;;2071731;28;19918;-88
2022/10/18 06:33:13;;;;;;;;;;;;;;;;;;2072215;28;19958;-88
2022/10/18 06:34:13;;;;;;;;;;;;;;;;;;2071180;28;20367;-88
2022/10/18 06:35:13;;;;;;;;;;;;;;;;;;2063264;28;19914;-87
2022/10/18 06:36:15;;;;;;;;;;;;;;;;;;2063282;28;19992;-88
2022/10/18 06:37:16;;;;;;;;;;;;;;;;;;2063318;28;19925;-87
2022/10/18 06:38:21;;;;;;;;;;;;;;;;;;2063330;28;20432;-87
2022/10/18 06:39:22;;;;;;;;;;;;;;;;;;2063942;28;20437;-88
2022/10/18 06:40:22;;;;;;;;;;;;;;;;;;2071522;28;19917;-88
2022/10/18 06:41:22;;;;;;;;;;;;;;;;;;2071456;28;19956;-87
2022/10/18 06:42:22;;;;;;;;;;;;;;;;;;2063544;28;20001;-88
2022/10/18 06:43:23;;;;;;;;;;;;;;;;;;2071349;28;19917;-87
2022/10/18 06:44:24;;;;;;;;;;;;;;;;;;2072356;28;20226;-89
2022/10/18 06:45:24;;;;;;;;;;;;;;;;;;2071317;28;20403;-88
2022/10/18 06:46:24;;;;;;;;;;;;;;;;;;2071612;28;20017;-87
2022/10/18 06:47:25;;;;;;;;;;;;;;;;;;2071262;28;19913;-88
2022/10/18 06:48:25;;;;;;;;;;;;;;;;;;2071643;28;19951;-88
2022/10/18 06:49:26;;;;;;;;;;;;;;;;;;2072226;28;19963;-88
2022/10/18 06:50:26;;;;;;;;;;;;;;;;;;2072103;28;19939;-89
2022/10/18 06:51:26;;;;;;;;;;;;;;;;;;2071176;28;19929;-88
2022/10/18 06:52:27;;;;;;;;;;;;;;;;;;2071670;28;19968;-88
2022/10/18 06:53:28;;;;;;;;;;;;;;;;;;2071552;28;20453;-87
2022/10/18 06:54:28;;;;;;;;;;;;;;;;;;2071530;28;19914;-87
2022/10/18 06:55:29;;;;;;;;;;;;;;;;;;2071781;28;19948;-88
2022/10/18 06:56:29;;;;;;;;;;;;;;;;;;2071964;28;19917;-88
2022/10/18 06:57:30;;;;;;;;;;;;;;;;;;2071450;28;20361;-88
2022/10/18 06:58:30;;;;;;;;;;;;;;;;;;2071544;28;19913;-88
2022/10/18 06:59:31;;;;;;;;;;;;;;;;;;2072370;28;20360;-87
2022/10/18 07:00:31;;;;;;;;;;;;;;;;;;2071380;28;20267;-88
2022/10/18 07:01:31;;;;;;;;;;;;;;;;;;2071180;28;19940;-88
2022/10/18 07:02:32;;;;;;;;;;;;;;;;;;2079420;28;20369;-88